メインページ
METAR-TAF:

METAR-TAF

空港 :

ローマ・フィウミチーノ, イタリア

フィウミチーノ空港

緯度: 41-48N, 経度: 012-14E, 海抜: 2m

現時点の気象観測

当レポートは13分前の11:50(UTC)に作成
南西の風 9kt、から西の間で変化する
気温 18°C
湿度 52%
気圧 1020 hPa
視程10km以上
高度3000ftの雲はほとんどない

METAR: LIRF 231150Z 23009KT 190V270 9999 FEW030 18/08 Q1020 NOSIG

時間: 14:03 (12:03 UTC)

予報

当レポートは1時間3分前の11:00(UTC)に作成
予報は23日の 12時(UTC)から 24日の 18時(UTC)まで有効
西/南西の風 13kt
視程10km以上
1,500メートル以下は雲なし、積乱雲なし
23日の 18時(UTC)から 23日の 21時(UTC)まで徐々に
東/北東の風 8kt
24日の 06時(UTC)から 24日の 09時(UTC)まで徐々に
の風 12kt

TAF: LIRF 231100Z 2312/2418 24013KT CAVOK BECMG 2318/2321 06008KT BECMG 2406/2409 18012KT

4,000以上の空港の気象観測と天気予報(METAR報とTAF報)

利用可能な観測所は地図上に黄色い丸と赤い丸で示す。

丸の上にカーソルを重ねると観測所名を参照できる。

次にクリックすると気象観測と天気予報を参照できる。

マップの切り替え:黒色「×」印の緑ボタンをクリックして拡大、「-」印の緑ボタンをクリックして縮小、緑色の三角印をクリックして隣りの地図に切り替え


METAR-TAF: